createdAt,value
2018-01-21T07:54:04.579Z,5.59
2018-01-21T07:56:35.632Z,5.63
2018-01-21T07:59:06.702Z,5.64
2018-01-21T08:01:37.731Z,5.65
2018-01-21T08:04:08.842Z,5.64
2018-01-21T08:06:39.921Z,5.66
2018-01-21T08:09:11.028Z,5.59
2018-01-21T08:11:42.080Z,5.64
2018-01-21T08:14:13.147Z,5.66
2018-01-21T08:16:44.257Z,5.70
2018-01-21T08:19:15.341Z,5.65
2018-01-21T08:21:46.425Z,5.77
2018-01-21T08:24:17.528Z,5.67
2018-01-21T08:26:48.606Z,5.62
2018-01-21T08:29:19.834Z,5.55
2018-01-21T08:31:50.922Z,5.51
2018-01-21T08:34:28.102Z,5.49
2018-01-21T08:37:05.336Z,5.62
2018-01-21T08:42:43.680Z,5.52
2018-01-21T08:45:14.810Z,5.55
2018-01-21T08:47:45.842Z,5.63
2018-01-21T08:50:16.966Z,5.70
2018-01-21T08:52:48.026Z,5.85
2018-01-21T08:55:19.116Z,6.01
2018-01-21T08:57:50.503Z,6.20
2018-01-21T09:00:21.667Z,6.31
2018-01-21T09:02:52.780Z,6.30
2018-01-21T09:05:23.852Z,6.33
2018-01-21T09:07:56.371Z,6.43
2018-01-21T09:10:27.454Z,7.37
2018-01-21T09:12:58.581Z,7.86
2018-01-21T09:15:29.679Z,7.44
2018-01-21T09:18:01.245Z,7.36
2018-01-21T09:20:32.344Z,7.15
2018-01-21T09:23:03.471Z,6.93
2018-01-21T09:25:34.564Z,6.81
2018-01-21T09:28:05.618Z,6.69
2018-01-21T09:30:36.706Z,6.45
2018-01-21T09:33:07.776Z,6.44
2018-01-21T09:35:38.918Z,6.47
2018-01-21T09:38:10.031Z,6.59
2018-01-21T09:40:41.109Z,6.65
2018-01-21T09:43:12.179Z,6.75
2018-01-21T09:45:43.294Z,6.78
2018-01-21T09:48:14.428Z,6.71
2018-01-21T09:50:45.519Z,6.72
2018-01-21T09:53:16.552Z,6.63
2018-01-21T09:55:47.646Z,6.69
2018-01-21T09:58:18.697Z,6.78
2018-01-21T10:00:49.814Z,6.61
2018-01-21T10:03:20.854Z,6.68
2018-01-21T10:05:51.953Z,6.67
2018-01-21T10:08:23.025Z,6.58
2018-01-21T10:10:54.101Z,6.44
2018-01-21T10:13:25.897Z,6.53
2018-01-21T10:15:57.086Z,6.86
2018-01-21T10:18:28.180Z,7.07
2018-01-21T10:20:59.294Z,7.21
2018-01-21T10:23:30.350Z,7.36
2018-01-21T10:26:01.622Z,7.45
2018-01-21T10:28:32.716Z,7.64
2018-01-21T10:31:03.792Z,7.92
2018-01-21T10:33:34.896Z,7.85
2018-01-21T10:36:05.955Z,7.84
2018-01-21T10:38:37.032Z,7.77
2018-01-21T10:41:08.132Z,7.55
2018-01-21T10:43:39.195Z,7.50
2018-01-21T10:46:10.260Z,7.49
2018-01-21T10:48:41.344Z,7.55
2018-01-21T10:51:12.439Z,7.46
2018-01-21T10:53:49.832Z,7.47
2018-01-21T10:56:20.948Z,7.23
2018-01-21T10:58:52.040Z,7.28
2018-01-21T11:01:23.151Z,7.48
2018-01-21T11:03:54.255Z,7.35
2018-01-21T11:06:25.312Z,7.18
2018-01-21T11:08:56.383Z,7.24
2018-01-21T11:11:28.029Z,7.22
2018-01-21T11:13:59.103Z,7.18
2018-01-21T11:16:30.175Z,7.24
2018-01-21T11:19:01.270Z,7.29
2018-01-21T11:21:32.404Z,7.13
2018-01-21T11:24:03.480Z,7.13
2018-01-21T11:26:34.540Z,7.16
2018-01-21T11:29:05.626Z,7.02
2018-01-21T11:31:36.684Z,6.97
2018-01-21T11:34:07.760Z,6.99
2018-01-21T11:36:38.881Z,7.08
2018-01-21T11:39:09.969Z,7.01
2018-01-21T11:41:41.108Z,7.05
2018-01-21T11:44:12.202Z,7.05
2018-01-21T11:46:43.293Z,6.93
2018-01-21T11:49:14.526Z,7.05
2018-01-21T11:51:45.604Z,6.88
2018-01-21T11:54:16.691Z,6.74
2018-01-21T11:56:47.789Z,6.62
2018-01-21T11:59:18.890Z,6.68
2018-01-21T12:01:50.006Z,6.65
2018-01-21T12:04:21.227Z,6.76
2018-01-21T12:06:52.268Z,6.65
2018-01-21T12:09:23.380Z,6.43
2018-01-21T12:11:54.429Z,6.38
2018-01-21T12:14:25.521Z,6.44
2018-01-21T12:16:56.607Z,6.34
2018-01-21T12:19:27.856Z,6.29
2018-01-21T12:21:58.932Z,6.33
2018-01-21T12:24:30.015Z,6.45
2018-01-21T12:27:01.068Z,6.56
2018-01-21T12:29:32.205Z,6.51
2018-01-21T12:32:03.308Z,6.53
2018-01-21T12:34:34.396Z,6.57
2018-01-21T12:37:05.488Z,6.46
2018-01-21T12:39:36.598Z,6.39
2018-01-21T12:42:07.694Z,6.45
2018-01-21T12:44:38.754Z,6.46
2018-01-21T12:47:10.053Z,6.49
2018-01-21T12:49:41.167Z,6.55
2018-01-21T12:52:12.257Z,6.52
2018-01-21T12:54:43.366Z,6.50
2018-01-21T12:57:14.429Z,6.49
2018-01-21T12:59:45.546Z,6.51
2018-01-21T13:02:16.605Z,6.58
2018-01-21T13:04:47.791Z,6.67
2018-01-21T13:07:18.856Z,6.70
2018-01-21T13:09:49.911Z,6.67
2018-01-21T13:12:21.009Z,6.57
2018-01-21T13:14:52.110Z,6.58
2018-01-21T13:17:23.184Z,6.57
2018-01-21T13:19:54.213Z,6.54
2018-01-21T13:22:25.370Z,6.56
2018-01-21T13:24:56.467Z,6.62
2018-01-21T13:27:27.577Z,6.73
2018-01-21T13:29:58.676Z,6.65
2018-01-21T13:32:29.735Z,6.63
2018-01-21T13:35:00.874Z,6.50
2018-01-21T13:37:31.947Z,6.42
2018-01-21T13:40:03.086Z,6.49
2018-01-21T13:42:34.147Z,6.36
2018-01-21T13:45:05.221Z,6.36
2018-01-21T13:47:36.300Z,6.27
2018-01-21T13:50:07.423Z,6.19
2018-01-21T13:52:38.532Z,6.23
2018-01-21T13:55:09.641Z,6.21
2018-01-21T13:57:40.744Z,6.15
2018-01-21T14:00:11.868Z,6.10
2018-01-21T14:02:42.986Z,6.08
2018-01-21T14:05:14.033Z,5.98
2018-01-21T14:07:45.154Z,6.05
2018-01-21T14:10:16.289Z,6.06
2018-01-21T14:12:47.356Z,5.97
2018-01-21T14:15:18.451Z,5.95
2018-01-21T14:17:49.523Z,5.88
2018-01-21T14:20:20.638Z,6.03
2018-01-21T14:22:51.762Z,6.00
2018-01-21T14:25:22.872Z,5.94
2018-01-21T14:27:53.931Z,5.97
2018-01-21T14:30:25.055Z,5.91
2018-01-21T14:32:56.130Z,5.94
2018-01-21T14:35:27.191Z,5.90
2018-01-21T14:37:58.264Z,5.86
2018-01-21T14:40:29.334Z,5.77
2018-01-21T14:43:00.441Z,5.79
2018-01-21T14:45:31.548Z,5.74
2018-01-21T14:48:02.649Z,5.77
2018-01-21T14:50:33.748Z,5.75
2018-01-21T14:53:04.901Z,5.85
2018-01-21T14:55:35.991Z,5.87
2018-01-21T14:58:07.068Z,5.86
2018-01-21T15:00:40.046Z,5.94
2018-01-21T15:03:11.105Z,5.96
2018-01-21T15:05:42.214Z,5.99
2018-01-21T15:08:13.320Z,6.08
2018-01-21T15:10:44.396Z,6.05
2018-01-21T15:13:15.463Z,6.05
2018-01-21T15:15:46.576Z,6.14
2018-01-21T15:18:17.662Z,6.19
2018-01-21T15:20:48.780Z,6.17
2018-01-21T15:23:19.868Z,6.15
2018-01-21T15:25:50.980Z,6.16
2018-01-21T15:28:22.060Z,6.17
2018-01-21T15:30:53.133Z,6.10
2018-01-21T15:33:24.232Z,6.00
2018-01-21T15:35:55.319Z,5.92
2018-01-21T15:38:26.448Z,5.82
2018-01-21T15:40:57.542Z,5.83
2018-01-21T15:43:28.883Z,5.82
2018-01-21T15:45:59.983Z,5.78
2018-01-21T15:48:31.056Z,5.81
2018-01-21T15:51:02.090Z,5.82
2018-01-21T15:53:33.258Z,5.82
2018-01-21T15:56:04.385Z,5.79
2018-01-21T15:58:35.473Z,5.75
2018-01-21T16:01:06.560Z,5.70
2018-01-21T16:03:37.678Z,5.69
2018-01-21T16:06:08.761Z,5.73
2018-01-21T16:08:39.895Z,5.76
2018-01-21T16:11:10.985Z,5.75
2018-01-21T16:13:42.080Z,5.77
2018-01-21T16:16:13.199Z,5.75
2018-01-21T16:18:44.320Z,5.77
2018-01-21T16:21:15.431Z,5.77
2018-01-21T16:23:46.515Z,5.78
2018-01-21T16:26:17.580Z,5.75
2018-01-21T16:28:48.678Z,5.67
2018-01-21T16:31:19.766Z,5.60
2018-01-21T16:33:50.828Z,5.47
2018-01-21T16:36:26.751Z,5.30
2018-01-21T16:38:58.864Z,5.05
2018-01-21T16:41:29.916Z,4.86
2018-01-21T16:44:01.042Z,4.70
2018-01-21T16:46:32.676Z,4.58
2018-01-21T16:49:03.838Z,4.41
2018-01-21T16:51:34.941Z,4.27
2018-01-21T16:54:06.008Z,4.14
2018-01-21T16:56:37.357Z,4.02
2018-01-21T16:59:08.427Z,3.91
2018-01-21T17:01:39.558Z,3.84
2018-01-21T17:04:10.618Z,3.80
2018-01-21T17:06:41.698Z,3.75
2018-01-21T17:09:12.801Z,3.68
2018-01-21T17:11:44.590Z,3.63
2018-01-21T17:14:15.679Z,3.59
2018-01-21T17:16:46.763Z,3.56
2018-01-21T17:19:17.841Z,3.55
2018-01-21T17:21:48.989Z,3.53
2018-01-21T17:24:20.086Z,3.52
2018-01-21T17:26:51.910Z,3.50
2018-01-21T17:29:22.968Z,3.47
2018-01-21T17:31:54.039Z,3.45
2018-01-21T17:34:25.097Z,3.40
2018-01-21T17:36:56.255Z,3.34
2018-01-21T17:39:27.370Z,3.31
2018-01-21T17:41:58.489Z,3.28
2018-01-21T17:44:29.563Z,3.27
2018-01-21T17:47:00.808Z,3.26
2018-01-21T17:49:32.047Z,3.24
2018-01-21T17:52:03.172Z,3.21
2018-01-21T17:54:34.254Z,3.18
2018-01-21T17:57:05.393Z,3.17
2018-01-21T17:59:36.458Z,3.16
2018-01-21T18:02:07.541Z,3.16
2018-01-21T18:04:38.614Z,3.12
2018-01-21T18:07:09.728Z,3.12
2018-01-21T18:09:41.010Z,3.12
2018-01-21T18:12:12.085Z,3.10
2018-01-21T18:14:43.196Z,3.08
2018-01-21T18:17:14.328Z,3.05
2018-01-21T18:19:45.455Z,3.03
2018-01-21T18:22:16.604Z,3.01
2018-01-21T18:24:47.751Z,2.99
2018-01-21T18:27:18.951Z,2.98
2018-01-21T18:29:50.092Z,2.98
2018-01-21T18:32:21.468Z,2.98
2018-01-21T18:34:52.567Z,2.96
2018-01-21T18:37:23.618Z,2.93
2018-01-21T18:39:54.715Z,2.91
2018-01-21T18:42:25.808Z,2.89
2018-01-21T18:44:57.946Z,2.87
2018-01-21T18:47:29.005Z,2.85
2018-01-21T18:50:00.198Z,2.87
2018-01-21T18:52:31.232Z,2.87
2018-01-21T18:55:02.376Z,2.87
2018-01-21T18:57:33.464Z,2.87
2018-01-21T19:00:04.729Z,2.87
2018-01-21T19:02:35.809Z,2.85
2018-01-21T19:05:06.882Z,2.82
2018-01-21T19:07:37.946Z,2.84
2018-01-21T19:10:09.012Z,2.83
2018-01-21T19:12:40.100Z,2.81
2018-01-21T19:15:11.178Z,2.80
2018-01-21T19:17:42.263Z,2.80
2018-01-21T19:20:13.378Z,2.78
2018-01-21T19:22:44.419Z,2.77
2018-01-21T19:25:15.509Z,2.77
2018-01-21T19:27:46.535Z,2.74
2018-01-21T19:30:17.656Z,2.69
2018-01-21T19:32:48.759Z,2.62
2018-01-21T19:35:19.967Z,2.58
2018-01-21T19:37:51.138Z,2.53
2018-01-21T19:40:25.180Z,2.52
2018-01-21T19:43:02.304Z,2.47
2018-01-21T19:45:33.430Z,2.42
2018-01-21T19:48:04.489Z,2.42
2018-01-21T19:50:35.518Z,2.41
2018-01-21T19:53:06.688Z,2.39
2018-01-21T19:55:37.817Z,2.41
2018-01-21T19:58:08.868Z,2.40
2018-01-21T20:00:40.207Z,2.39
2018-01-21T20:03:11.322Z,2.41
2018-01-21T20:05:42.442Z,2.40
2018-01-21T20:08:13.591Z,2.40
2018-01-21T20:10:44.662Z,2.43
2018-01-21T20:13:15.818Z,2.44
2018-01-21T20:15:46.903Z,2.42
2018-01-21T20:18:18.120Z,2.41
2018-01-21T20:20:49.206Z,2.40
2018-01-21T20:23:20.294Z,2.42
2018-01-21T20:25:51.329Z,2.39
2018-01-21T20:28:22.460Z,2.39
2018-01-21T20:30:54.112Z,2.38
2018-01-21T20:33:25.233Z,2.33
2018-01-21T20:35:56.326Z,2.31
2018-01-21T20:38:27.457Z,2.29
2018-01-21T20:40:58.543Z,2.27
2018-01-21T20:43:29.625Z,2.26
2018-01-21T20:46:00.805Z,2.28
2018-01-21T20:48:31.878Z,2.27
2018-01-21T20:51:09.049Z,2.28
2018-01-21T20:53:46.165Z,2.25
2018-01-21T20:56:17.334Z,2.16
2018-01-21T20:58:48.405Z,2.08
2018-01-21T21:01:19.802Z,2.06
2018-01-21T21:03:50.852Z,2.05
2018-01-21T21:06:21.971Z,2.07
2018-01-21T21:08:53.082Z,2.09
2018-01-21T21:11:24.138Z,2.11
2018-01-21T21:13:55.233Z,2.13
2018-01-21T21:16:26.311Z,2.14
2018-01-21T21:18:57.416Z,2.14
2018-01-21T21:21:28.461Z,2.12
2018-01-21T21:23:59.571Z,2.13
2018-01-21T21:26:31.323Z,2.15
2018-01-21T21:29:02.426Z,2.17
2018-01-21T21:31:33.527Z,2.18
2018-01-21T21:34:04.618Z,2.14
2018-01-21T21:36:35.735Z,2.14
2018-01-21T21:39:06.774Z,2.15
2018-01-21T21:41:38.658Z,2.16
2018-01-21T21:44:09.710Z,2.19
2018-01-21T21:46:41.490Z,2.16
2018-01-21T21:49:12.568Z,2.09
2018-01-21T21:51:43.661Z,2.08
2018-01-21T21:54:14.731Z,2.02
2018-01-21T21:56:45.811Z,1.95
2018-01-21T21:59:16.897Z,1.93
2018-01-21T22:01:48.004Z,1.90
2018-01-21T22:04:19.065Z,1.89
2018-01-21T22:06:50.205Z,1.86
2018-01-21T22:09:21.278Z,1.83
2018-01-21T22:11:52.367Z,1.84
2018-01-21T22:14:23.420Z,1.82
2018-01-21T22:16:54.538Z,1.81
2018-01-21T22:19:25.656Z,1.80
2018-01-21T22:21:56.751Z,1.76
2018-01-21T22:24:27.802Z,1.76
2018-01-21T22:26:58.915Z,1.76
2018-01-21T22:29:29.973Z,1.74
2018-01-21T22:32:01.088Z,1.76
2018-01-21T22:34:32.137Z,1.80
2018-01-21T22:37:03.279Z,1.87
2018-01-21T22:39:34.321Z,1.96
2018-01-21T22:42:05.402Z,2.05
2018-01-21T22:44:36.490Z,2.12
2018-01-21T22:47:07.554Z,2.17
2018-01-21T22:49:38.685Z,2.27
2018-01-21T22:52:09.785Z,2.33
2018-01-21T22:54:40.918Z,2.32
2018-01-21T22:57:12.929Z,2.36
2018-01-21T22:59:44.091Z,2.40
2018-01-21T23:02:15.110Z,2.39
2018-01-21T23:04:46.323Z,2.35
2018-01-21T23:07:17.478Z,2.32
2018-01-21T23:09:48.564Z,2.30
2018-01-21T23:12:19.703Z,2.23
2018-01-21T23:14:50.739Z,2.11
2018-01-21T23:17:21.855Z,2.03
2018-01-21T23:19:52.917Z,1.92
2018-01-21T23:22:24.008Z,1.90
2018-01-21T23:24:55.096Z,1.92
2018-01-21T23:27:26.202Z,1.96
2018-01-21T23:29:57.322Z,1.99
2018-01-21T23:32:28.373Z,2.04
2018-01-21T23:34:59.489Z,2.12
2018-01-21T23:37:30.539Z,2.23
2018-01-21T23:40:01.672Z,2.33
2018-01-21T23:42:32.716Z,2.39
2018-01-21T23:45:03.844Z,2.46
2018-01-21T23:47:41.984Z,2.45
2018-01-21T23:50:13.113Z,2.44
2018-01-21T23:52:44.215Z,2.36
2018-01-21T23:55:15.344Z,2.33
2018-01-21T23:57:46.486Z,2.33
